Time;durP1;ratioP1;P1;durP2;ratioP2;P2;SDS_P1;SDS_P2;PMS_P1;PMS_P2;Temp;Humidity;BMP_temperature;BMP_pressure;BME280_temperature;BME280_humidity;BME280_pressure;Samples;Min_cycle;Max_cycle;Signal;HPM_P1;HPM_P2
2023/06/30 00:02:24;;;;;;;2.78;2.30;;;;;;;;;;5024605;28;20040;-71
2023/06/30 00:04:50;;;;;;;2.95;2.38;;;;;;;;;;5021829;28;20049;-72
2023/06/30 00:07:20;;;;;;;2.35;1.83;;;;;;;;;;5020144;28;20053;-71
2023/06/30 00:09:48;;;;;;;4.47;2.30;;;;;;;;;;5020118;28;20087;-70
2023/06/30 00:12:13;;;;;;;2.60;1.85;;;;;;;;;;5012532;28;20037;-70
2023/06/30 00:14:39;;;;;;;4.97;1.90;;;;;;;;;;5018183;28;20071;-71
2023/06/30 00:17:04;;;;;;;3.05;2.20;;;;;;;;;;5019277;28;20405;-71
2023/06/30 00:19:30;;;;;;;2.50;2.30;;;;;;;;;;5022111;28;20045;-70
2023/06/30 00:21:55;;;;;;;1.90;1.70;;;;;;;;;;5021229;28;20069;-70
2023/06/30 00:24:21;;;;;;;2.80;1.90;;;;;;;;;;5029350;28;20578;-70
2023/06/30 00:26:46;;;;;;;2.58;2.05;;;;;;;;;;5019912;28;20398;-70
2023/06/30 00:29:12;;;;;;;2.40;1.73;;;;;;;;;;5025132;28;20501;-71
2023/06/30 00:31:37;;;;;;;2.53;2.05;;;;;;;;;;5006567;28;20146;-71
2023/06/30 00:34:03;;;;;;;2.80;2.30;;;;;;;;;;5031024;28;20064;-71
2023/06/30 00:36:31;;;;;;;2.10;1.90;;;;;;;;;;5025257;28;20059;-71
2023/06/30 00:38:58;;;;;;;2.35;1.90;;;;;;;;;;5029880;28;20044;-71
2023/06/30 00:41:24;;;;;;;3.72;2.33;;;;;;;;;;5025934;28;20049;-70
2023/06/30 00:43:50;;;;;;;3.28;2.00;;;;;;;;;;4988916;28;20045;-70
2023/06/30 00:46:17;;;;;;;1.88;1.70;;;;;;;;;;5024824;28;20128;-71
2023/06/30 00:48:44;;;;;;;2.22;2.03;;;;;;;;;;5033525;28;20682;-70
2023/06/30 00:51:12;;;;;;;2.05;1.80;;;;;;;;;;5017658;28;20817;-71
2023/06/30 00:53:37;;;;;;;2.47;1.95;;;;;;;;;;5020026;28;20453;-70
2023/06/30 00:56:03;;;;;;;2.10;2.00;;;;;;;;;;5034303;28;20494;-71
2023/06/30 00:58:29;;;;;;;2.67;2.10;;;;;;;;;;5018820;28;20067;-69
2023/06/30 01:01:20;;;;;;;1.98;1.80;;;;;;;;;;5028245;28;20655;-67
2023/06/30 01:03:53;;;;;;;2.40;2.20;;;;;;;;;;5018383;28;20048;-68
2023/06/30 01:06:28;;;;;;;2.78;2.05;;;;;;;;;;5034161;28;20044;-70
2023/06/30 01:09:19;;;;;;;2.38;2.10;;;;;;;;;;5028658;28;20115;-69
2023/06/30 01:11:46;;;;;;;2.60;2.08;;;;;;;;;;5025008;28;20053;-68
2023/06/30 01:14:14;;;;;;;3.72;2.33;;;;;;;;;;5008652;28;20123;-68
2023/06/30 01:16:41;;;;;;;5.45;2.33;;;;;;;;;;5021662;28;20693;-70
2023/06/30 01:19:21;;;;;;;2.50;2.30;;;;;;;;;;5027701;28;20053;-70
2023/06/30 01:21:47;;;;;;;6.50;2.50;;;;;;;;;;5032428;28;20056;-68
2023/06/30 01:24:16;;;;;;;2.65;2.30;;;;;;;;;;5019824;28;20099;-68
2023/06/30 01:26:42;;;;;;;2.53;2.15;;;;;;;;;;5032388;28;20049;-67
2023/06/30 01:29:10;;;;;;;2.92;2.22;;;;;;;;;;5030893;28;20067;-67
2023/06/30 01:31:35;;;;;;;2.90;2.10;;;;;;;;;;5027501;28;20098;-67
2023/06/30 01:34:02;;;;;;;3.17;2.40;;;;;;;;;;5024845;28;20053;-68
2023/06/30 01:36:28;;;;;;;5.78;2.70;;;;;;;;;;5027207;28;20067;-71
2023/06/30 01:38:54;;;;;;;2.72;2.40;;;;;;;;;;5022378;28;20143;-68
2023/06/30 01:41:21;;;;;;;4.93;2.20;;;;;;;;;;5038448;28;20059;-68
2023/06/30 01:43:49;;;;;;;4.10;2.50;;;;;;;;;;5025156;28;20045;-67
2023/06/30 01:46:15;;;;;;;2.88;2.55;;;;;;;;;;5023353;28;20045;-68
2023/06/30 01:48:41;;;;;;;2.85;2.50;;;;;;;;;;5037750;28;20140;-69
2023/06/30 01:51:07;;;;;;;6.20;2.38;;;;;;;;;;5022037;28;20096;-68
2023/06/30 01:53:32;;;;;;;5.07;2.28;;;;;;;;;;5031498;28;20079;-69
2023/06/30 01:55:58;;;;;;;2.58;2.35;;;;;;;;;;5022523;28;20062;-67
2023/06/30 01:58:24;;;;;;;2.53;2.33;;;;;;;;;;5037333;28;20048;-66
2023/06/30 02:00:50;;;;;;;2.95;2.63;;;;;;;;;;5024644;28;20134;-69
2023/06/30 02:03:15;;;;;;;5.65;2.60;;;;;;;;;;4983767;28;20129;-68
2023/06/30 02:05:41;;;;;;;3.10;2.40;;;;;;;;;;5027124;28;20057;-68
2023/06/30 02:08:07;;;;;;;3.05;2.35;;;;;;;;;;5000807;28;20050;-68
2023/06/30 02:10:32;;;;;;;3.72;2.60;;;;;;;;;;5002175;28;20045;-68
2023/06/30 02:12:58;;;;;;;5.72;2.45;;;;;;;;;;5001001;28;20463;-69
2023/06/30 02:15:23;;;;;;;4.97;2.70;;;;;;;;;;5010319;28;20571;-68
2023/06/30 02:17:49;;;;;;;3.90;2.88;;;;;;;;;;4993587;28;20515;-69
2023/06/30 02:20:14;;;;;;;2.88;2.50;;;;;;;;;;5000391;28;20481;-69
2023/06/30 02:22:40;;;;;;;6.75;3.20;;;;;;;;;;4996218;28;20060;-67
2023/06/30 02:25:06;;;;;;;4.35;2.80;;;;;;;;;;5000991;28;20049;-69
2023/06/30 02:27:31;;;;;;;3.13;2.83;;;;;;;;;;5029569;28;20054;-69
2023/06/30 02:29:57;;;;;;;3.38;2.90;;;;;;;;;;4995572;28;20049;-69
2023/06/30 02:32:22;;;;;;;4.68;2.83;;;;;;;;;;5022781;28;20045;-69
2023/06/30 02:34:48;;;;;;;3.28;2.83;;;;;;;;;;4994556;28;20054;-70
2023/06/30 02:37:14;;;;;;;4.30;2.72;;;;;;;;;;5010084;28;20056;-70
2023/06/30 02:39:40;;;;;;;3.92;2.85;;;;;;;;;;5001282;28;20487;-68
2023/06/30 02:42:06;;;;;;;4.45;3.05;;;;;;;;;;5001833;28;20518;-70
2023/06/30 02:44:31;;;;;;;4.43;2.83;;;;;;;;;;5033806;28;20042;-70
2023/06/30 02:46:58;;;;;;;4.45;3.05;;;;;;;;;;4992345;28;20112;-71
2023/06/30 02:49:23;;;;;;;3.45;2.75;;;;;;;;;;5026508;28;20526;-71
2023/06/30 02:51:49;;;;;;;3.17;2.85;;;;;;;;;;4996617;28;20042;-70
2023/06/30 02:54:15;;;;;;;8.18;2.85;;;;;;;;;;5001335;28;20042;-69
2023/06/30 02:56:41;;;;;;;3.78;2.78;;;;;;;;;;4999928;28;20050;-69
2023/06/30 02:59:07;;;;;;;6.60;2.95;;;;;;;;;;4992852;28;20046;-70
2023/06/30 03:01:32;;;;;;;6.60;3.25;;;;;;;;;;5026205;28;20034;-69
2023/06/30 03:03:58;;;;;;;5.57;3.50;;;;;;;;;;4999893;28;20144;-71
2023/06/30 03:06:26;;;;;;;5.18;3.45;;;;;;;;;;4992639;28;20525;-70
2023/06/30 03:08:52;;;;;;;4.65;3.30;;;;;;;;;;5032221;28;20054;-70
2023/06/30 03:11:20;;;;;;;4.18;3.17;;;;;;;;;;5025310;28;20037;-69
2023/06/30 03:13:46;;;;;;;4.57;3.35;;;;;;;;;;5023991;28;20040;-70
2023/06/30 03:16:12;;;;;;;5.68;2.90;;;;;;;;;;5021146;28;20088;-70
2023/06/30 03:18:39;;;;;;;4.38;2.97;;;;;;;;;;5000085;28;20133;-70
2023/06/30 03:21:05;;;;;;;6.68;3.53;;;;;;;;;;5023644;28;20863;-68
2023/06/30 03:23:32;;;;;;;4.05;3.30;;;;;;;;;;5026592;28;20475;-70
2023/06/30 03:25:58;;;;;;;3.97;3.38;;;;;;;;;;4996215;28;20144;-68
2023/06/30 03:28:24;;;;;;;4.53;3.42;;;;;;;;;;5032720;28;20055;-69
2023/06/30 03:30:50;;;;;;;6.82;3.72;;;;;;;;;;4993863;28;20042;-70
2023/06/30 03:33:15;;;;;;;3.70;3.30;;;;;;;;;;4998601;28;20566;-70
2023/06/30 03:35:41;;;;;;;3.78;3.03;;;;;;;;;;4999431;28;20046;-70
2023/06/30 03:38:06;;;;;;;3.60;2.70;;;;;;;;;;5002164;28;20142;-70
2023/06/30 03:40:32;;;;;;;6.40;3.67;;;;;;;;;;4999660;28;20565;-70
2023/06/30 03:42:57;;;;;;;4.80;3.80;;;;;;;;;;5015785;28;20784;-70
2023/06/30 03:45:23;;;;;;;5.13;3.45;;;;;;;;;;5019511;28;20133;-69
2023/06/30 03:47:48;;;;;;;7.75;3.88;;;;;;;;;;5024499;28;20045;-69
2023/06/30 03:50:15;;;;;;;5.55;4.57;;;;;;;;;;5019223;28;20045;-70
2023/06/30 03:52:40;;;;;;;10.90;4.45;;;;;;;;;;5023911;28;20115;-70
2023/06/30 03:55:06;;;;;;;5.03;4.10;;;;;;;;;;5023625;28;20041;-69
2023/06/30 03:57:32;;;;;;;5.40;4.13;;;;;;;;;;5026119;28;20060;-68
2023/06/30 03:59:57;;;;;;;4.72;4.25;;;;;;;;;;5024262;28;20041;-69
2023/06/30 04:02:23;;;;;;;8.60;4.05;;;;;;;;;;5024769;28;20067;-70
2023/06/30 04:04:48;;;;;;;5.68;4.72;;;;;;;;;;5023787;28;20049;-71
2023/06/30 04:07:14;;;;;;;4.25;3.85;;;;;;;;;;5018137;28;20059;-69
2023/06/30 04:09:39;;;;;;;9.18;4.53;;;;;;;;;;5019961;28;20048;-68
2023/06/30 04:12:05;;;;;;;9.20;4.70;;;;;;;;;;5022870;28;20045;-69
2023/06/30 04:14:31;;;;;;;4.82;4.32;;;;;;;;;;5023855;28;20051;-70
2023/06/30 04:16:56;;;;;;;5.15;4.65;;;;;;;;;;5024098;28;20053;-70
2023/06/30 04:19:21;;;;;;;6.38;4.88;;;;;;;;;;5027730;28;20156;-70
2023/06/30 04:21:47;;;;;;;11.30;4.63;;;;;;;;;;5025756;28;20051;-71
2023/06/30 04:24:13;;;;;;;6.47;4.78;;;;;;;;;;5025145;28;20056;-70
2023/06/30 04:26:38;;;;;;;6.82;5.18;;;;;;;;;;5025318;28;20033;-70
2023/06/30 04:29:04;;;;;;;6.95;4.90;;;;;;;;;;5027966;28;20236;-69
2023/06/30 04:31:29;;;;;;;5.13;4.63;;;;;;;;;;5027623;28;20041;-70
2023/06/30 04:33:55;;;;;;;6.40;4.75;;;;;;;;;;5027472;28;20041;-70
2023/06/30 04:36:20;;;;;;;7.47;4.93;;;;;;;;;;5026503;28;20080;-70
2023/06/30 04:38:48;;;;;;;7.35;4.78;;;;;;;;;;5027346;28;20098;-71
2023/06/30 04:41:15;;;;;;;6.97;5.63;;;;;;;;;;5024323;28;20069;-71
2023/06/30 04:43:41;;;;;;;10.50;5.40;;;;;;;;;;5028724;28;20045;-69
2023/06/30 04:46:07;;;;;;;8.75;5.05;;;;;;;;;;5029246;28;20081;-70
2023/06/30 04:48:34;;;;;;;8.02;5.18;;;;;;;;;;5027397;28;20076;-69
2023/06/30 04:50:59;;;;;;;5.95;4.97;;;;;;;;;;5033818;28;20323;-71
2023/06/30 04:53:25;;;;;;;8.45;5.55;;;;;;;;;;5024889;28;20506;-69
2023/06/30 04:55:50;;;;;;;5.90;5.22;;;;;;;;;;5028257;28;20646;-70
2023/06/30 04:58:16;;;;;;;5.97;5.30;;;;;;;;;;5030523;28;20083;-71
2023/06/30 05:00:43;;;;;;;5.57;5.00;;;;;;;;;;5008678;28;20410;-72
2023/06/30 05:03:08;;;;;;;5.85;5.28;;;;;;;;;;5025503;28;20049;-71
2023/06/30 05:05:34;;;;;;;8.10;5.38;;;;;;;;;;5029422;28;20041;-73
2023/06/30 05:07:59;;;;;;;7.22;5.18;;;;;;;;;;5028448;28;20045;-71
2023/06/30 05:10:25;;;;;;;5.22;4.60;;;;;;;;;;5025886;28;20080;-70
2023/06/30 05:12:50;;;;;;;13.93;5.10;;;;;;;;;;5022074;28;20050;-72
2023/06/30 05:15:16;;;;;;;12.60;4.82;;;;;;;;;;5025823;28;20493;-71
2023/06/30 05:17:41;;;;;;;5.13;4.60;;;;;;;;;;5022518;28;20067;-73
2023/06/30 05:20:08;;;;;;;8.55;5.30;;;;;;;;;;5025478;28;20056;-74
2023/06/30 05:22:34;;;;;;;7.35;5.32;;;;;;;;;;5028437;28;20417;-71
2023/06/30 05:24:59;;;;;;;6.43;4.97;;;;;;;;;;5024650;28;20041;-74
2023/06/30 05:27:24;;;;;;;10.70;5.22;;;;;;;;;;5027169;28;20183;-72
2023/06/30 05:29:50;;;;;;;6.15;5.22;;;;;;;;;;4989878;28;20084;-73
2023/06/30 05:32:15;;;;;;;11.80;5.88;;;;;;;;;;5009147;28;20077;-69
2023/06/30 05:34:42;;;;;;;9.00;5.68;;;;;;;;;;5033423;28;20056;-74
2023/06/30 05:37:08;;;;;;;6.90;5.60;;;;;;;;;;5026813;28;20089;-68
2023/06/30 05:39:33;;;;;;;9.60;5.70;;;;;;;;;;5026632;28;20136;-69
2023/06/30 05:41:59;;;;;;;5.68;5.03;;;;;;;;;;5032654;28;20041;-70
2023/06/30 05:44:24;;;;;;;9.55;5.82;;;;;;;;;;5022292;28;20072;-69
2023/06/30 05:46:49;;;;;;;7.05;5.47;;;;;;;;;;5027009;28;20398;-70
2023/06/30 05:49:15;;;;;;;7.68;5.53;;;;;;;;;;5024299;28;20054;-70
2023/06/30 05:51:40;;;;;;;7.28;4.93;;;;;;;;;;5026666;28;20041;-72
2023/06/30 05:54:06;;;;;;;8.77;5.72;;;;;;;;;;5032324;28;20840;-72
2023/06/30 05:56:31;;;;;;;9.73;5.32;;;;;;;;;;5026650;28;20096;-73
2023/06/30 05:58:58;;;;;;;6.88;5.70;;;;;;;;;;5022084;28;20585;-72
2023/06/30 06:01:24;;;;;;;9.73;5.57;;;;;;;;;;5034116;28;20037;-72
2023/06/30 06:03:49;;;;;;;7.13;5.00;;;;;;;;;;5022314;28;20498;-69
2023/06/30 06:06:15;;;;;;;9.30;5.40;;;;;;;;;;5030278;28;20060;-72
2023/06/30 06:08:43;;;;;;;7.50;5.95;;;;;;;;;;5035919;28;20040;-72
2023/06/30 06:11:09;;;;;;;7.47;5.85;;;;;;;;;;5029453;28;20592;-70
2023/06/30 06:13:38;;;;;;;8.00;5.35;;;;;;;;;;5021386;28;20080;-73
2023/06/30 06:16:05;;;;;;;8.45;5.57;;;;;;;;;;5022310;28;20918;-71
2023/06/30 06:18:31;;;;;;;7.88;5.70;;;;;;;;;;5035488;28;20057;-70
2023/06/30 06:20:57;;;;;;;5.82;5.22;;;;;;;;;;5021948;28;20045;-72
2023/06/30 06:23:23;;;;;;;6.63;5.15;;;;;;;;;;5022238;28;20072;-72
2023/06/30 06:25:49;;;;;;;9.30;5.35;;;;;;;;;;5020903;28;20399;-71
2023/06/30 06:28:14;;;;;;;7.07;5.55;;;;;;;;;;5021107;28;20096;-70
2023/06/30 06:30:40;;;;;;;7.25;5.18;;;;;;;;;;5020808;28;20049;-71
2023/06/30 06:33:05;;;;;;;9.60;5.00;;;;;;;;;;5021401;28;20064;-72
2023/06/30 06:35:31;;;;;;;10.25;5.78;;;;;;;;;;5021640;28;20058;-72
2023/06/30 06:37:56;;;;;;;22.50;6.72;;;;;;;;;;5020334;28;20041;-72
2023/06/30 06:40:22;;;;;;;13.20;5.85;;;;;;;;;;5007894;28;20061;-70
2023/06/30 06:42:47;;;;;;;12.60;6.25;;;;;;;;;;5021869;28;20561;-73
2023/06/30 06:45:13;;;;;;;8.13;5.78;;;;;;;;;;5024457;28;20292;-72
2023/06/30 06:48:16;;;;;;;11.20;5.78;;;;;;;;;;5024568;28;20045;-72
2023/06/30 06:50:42;;;;;;;8.77;5.55;;;;;;;;;;5026561;28;20088;-73
2023/06/30 06:53:07;;;;;;;9.35;5.95;;;;;;;;;;5029437;28;20445;-74
2023/06/30 06:55:33;;;;;;;9.10;6.07;;;;;;;;;;5021921;28;20045;-72
2023/06/30 06:57:59;;;;;;;9.30;5.90;;;;;;;;;;5025045;28;20040;-73
2023/06/30 07:00:24;;;;;;;9.88;6.28;;;;;;;;;;5024730;28;20392;-74
2023/06/30 07:02:51;;;;;;;10.02;6.78;;;;;;;;;;5021413;28;20044;-73
2023/06/30 07:05:17;;;;;;;9.25;6.13;;;;;;;;;;5021286;28;20041;-74
2023/06/30 07:07:42;;;;;;;8.77;5.63;;;;;;;;;;5019537;28;20049;-73
2023/06/30 07:10:08;;;;;;;10.73;6.38;;;;;;;;;;5021453;28;20045;-71
2023/06/30 07:12:34;;;;;;;10.15;6.30;;;;;;;;;;5019335;28;20437;-72
2023/06/30 07:14:59;;;;;;;8.82;6.60;;;;;;;;;;5019250;28;20511;-74
2023/06/30 07:17:24;;;;;;;8.00;5.85;;;;;;;;;;5030491;28;20056;-73
2023/06/30 07:19:50;;;;;;;10.13;6.32;;;;;;;;;;5024633;28;20045;-72
2023/06/30 07:22:15;;;;;;;8.50;6.50;;;;;;;;;;5021136;28;20055;-73
2023/06/30 07:24:41;;;;;;;8.65;6.32;;;;;;;;;;5031352;28;20402;-74
2023/06/30 07:27:06;;;;;;;9.65;6.38;;;;;;;;;;5003861;28;20041;-73
2023/06/30 07:29:31;;;;;;;8.10;6.10;;;;;;;;;;5028847;28;20053;-74
2023/06/30 07:31:57;;;;;;;8.98;6.50;;;;;;;;;;5021126;28;20053;-72
2023/06/30 07:34:23;;;;;;;8.95;6.60;;;;;;;;;;5027869;28;20510;-73
2023/06/30 07:36:53;;;;;;;10.18;6.75;;;;;;;;;;5003059;28;20913;-73
2023/06/30 07:39:19;;;;;;;8.93;6.60;;;;;;;;;;5033228;28;20041;-74
2023/06/30 07:41:44;;;;;;;10.07;6.60;;;;;;;;;;5023294;28;20098;-74
2023/06/30 07:44:11;;;;;;;9.02;7.03;;;;;;;;;;5022221;28;20382;-73
2023/06/30 07:46:37;;;;;;;11.50;6.75;;;;;;;;;;5028784;28;20044;-73
2023/06/30 07:49:03;;;;;;;7.28;6.10;;;;;;;;;;5011682;28;21028;-74
2023/06/30 07:51:29;;;;;;;10.02;6.38;;;;;;;;;;5033962;28;20083;-74
2023/06/30 07:53:55;;;;;;;9.38;6.47;;;;;;;;;;5031412;28;20541;-74
2023/06/30 07:56:21;;;;;;;10.10;6.80;;;;;;;;;;5034643;28;20048;-74
2023/06/30 07:58:46;;;;;;;9.15;6.18;;;;;;;;;;5037632;28;20052;-74
2023/06/30 08:01:12;;;;;;;9.20;6.80;;;;;;;;;;5029382;28;20052;-73
2023/06/30 08:03:37;;;;;;;9.40;6.78;;;;;;;;;;5030090;28;20597;-75
2023/06/30 08:06:03;;;;;;;7.57;5.95;;;;;;;;;;5024358;28;20086;-75
2023/06/30 08:08:31;;;;;;;10.57;6.78;;;;;;;;;;5020504;28;20057;-71
2023/06/30 08:10:56;;;;;;;11.20;6.55;;;;;;;;;;5022945;28;20155;-71
2023/06/30 08:13:22;;;;;;;11.63;7.00;;;;;;;;;;5031702;28;20270;-73
2023/06/30 08:15:47;;;;;;;8.48;6.32;;;;;;;;;;5031839;28;20136;-73
2023/06/30 08:18:13;;;;;;;10.73;7.15;;;;;;;;;;5032407;28;20101;-72
2023/06/30 08:20:38;;;;;;;9.15;7.15;;;;;;;;;;5031138;28;20075;-72
2023/06/30 08:23:04;;;;;;;9.55;7.45;;;;;;;;;;5028872;28;20060;-75
2023/06/30 08:25:30;;;;;;;14.50;7.97;;;;;;;;;;5023692;28;20037;-71
2023/06/30 08:27:55;;;;;;;11.32;7.75;;;;;;;;;;5029162;28;20557;-72
2023/06/30 08:30:20;;;;;;;12.43;8.45;;;;;;;;;;5031364;28;20079;-71
2023/06/30 08:32:46;;;;;;;12.80;8.00;;;;;;;;;;5030072;28;20076;-73
2023/06/30 08:35:11;;;;;;;13.43;8.25;;;;;;;;;;5031970;28;20136;-71
2023/06/30 08:37:37;;;;;;;12.70;8.15;;;;;;;;;;5031980;28;20044;-71
2023/06/30 08:40:04;;;;;;;16.77;9.85;;;;;;;;;;5032672;28;20144;-71
2023/06/30 08:42:31;;;;;;;13.10;9.00;;;;;;;;;;5024542;28;20413;-71
2023/06/30 08:44:59;;;;;;;13.82;9.23;;;;;;;;;;5036485;28;20040;-71
2023/06/30 08:47:28;;;;;;;11.40;8.75;;;;;;;;;;5028852;28;20418;-72
2023/06/30 08:49:54;;;;;;;10.80;8.77;;;;;;;;;;5034720;28;20295;-72
2023/06/30 08:52:21;;;;;;;12.95;9.32;;;;;;;;;;5037190;28;20501;-72
2023/06/30 08:54:46;;;;;;;12.13;8.73;;;;;;;;;;5036531;28;20056;-72
2023/06/30 08:57:15;;;;;;;15.93;10.27;;;;;;;;;;5038955;28;20040;-72
2023/06/30 08:59:49;;;;;;;13.68;9.93;;;;;;;;;;5039065;28;20132;-72
2023/06/30 09:02:15;;;;;;;12.20;8.73;;;;;;;;;;5023529;28;20041;-73
2023/06/30 09:04:41;;;;;;;13.88;9.38;;;;;;;;;;5039245;28;20413;-73
2023/06/30 09:07:25;;;;;;;13.55;9.70;;;;;;;;;;5020368;28;20045;-72
2023/06/30 09:09:56;;;;;;;14.85;9.68;;;;;;;;;;5033336;28;20040;-73
2023/06/30 09:12:24;;;;;;;15.38;9.60;;;;;;;;;;5038038;28;20056;-72
2023/06/30 09:14:51;;;;;;;16.30;9.13;;;;;;;;;;5033226;28;20091;-72
2023/06/30 09:17:17;;;;;;;13.98;8.77;;;;;;;;;;5030568;28;20060;-73
2023/06/30 09:19:44;;;;;;;13.13;9.52;;;;;;;;;;5038941;28;20048;-73
2023/06/30 09:22:11;;;;;;;12.00;8.93;;;;;;;;;;5039162;28;20118;-73
2023/06/30 09:24:36;;;;;;;17.67;10.00;;;;;;;;;;5026012;28;20046;-72
2023/06/30 09:27:02;;;;;;;17.45;9.25;;;;;;;;;;5027048;28;20047;-74
2023/06/30 09:29:32;;;;;;;14.48;8.73;;;;;;;;;;5038914;28;20103;-74
2023/06/30 09:32:02;;;;;;;13.32;8.88;;;;;;;;;;5033713;28;20037;-72
2023/06/30 09:34:27;;;;;;;13.70;9.60;;;;;;;;;;5031475;28;20049;-72
2023/06/30 09:36:54;;;;;;;14.80;9.48;;;;;;;;;;5036177;28;20055;-70
2023/06/30 09:39:20;;;;;;;14.65;8.77;;;;;;;;;;5044902;28;20057;-70
2023/06/30 09:41:48;;;;;;;12.77;8.38;;;;;;;;;;5031051;28;20076;-71
2023/06/30 09:44:17;;;;;;;13.07;8.63;;;;;;;;;;5030900;28;20063;-71
2023/06/30 09:46:46;;;;;;;11.65;8.52;;;;;;;;;;5030088;28;20049;-72
2023/06/30 09:49:25;;;;;;;14.23;8.70;;;;;;;;;;5028923;28;20148;-74
2023/06/30 09:51:51;;;;;;;13.30;9.30;;;;;;;;;;5038782;28;20041;-71
2023/06/30 09:54:20;;;;;;;12.05;8.05;;;;;;;;;;5042279;28;20710;-74
2023/06/30 09:56:46;;;;;;;13.27;8.63;;;;;;;;;;5032012;28;20056;-73
2023/06/30 09:59:12;;;;;;;14.02;9.45;;;;;;;;;;5034405;28;20053;-71
2023/06/30 10:01:40;;;;;;;14.52;9.10;;;;;;;;;;5031616;28;20520;-71
2023/06/30 10:04:05;;;;;;;17.38;8.85;;;;;;;;;;5040919;28;20136;-72
2023/06/30 10:06:32;;;;;;;14.68;9.63;;;;;;;;;;5041699;28;20140;-70
2023/06/30 10:08:59;;;;;;;17.67;9.75;;;;;;;;;;5028655;28;20433;-75
2023/06/30 10:11:27;;;;;;;21.17;10.15;;;;;;;;;;5034312;28;20048;-71
2023/06/30 10:13:55;;;;;;;14.68;9.35;;;;;;;;;;5035622;28;20049;-72
2023/06/30 10:16:22;;;;;;;14.52;9.55;;;;;;;;;;5037507;28;20045;-71
2023/06/30 10:18:50;;;;;;;17.48;10.23;;;;;;;;;;5029629;28;20494;-73
2023/06/30 10:21:15;;;;;;;15.07;8.90;;;;;;;;;;5026847;28;20037;-69
2023/06/30 10:23:43;;;;;;;17.90;8.73;;;;;;;;;;5033803;28;20525;-71
2023/06/30 10:26:12;;;;;;;11.43;7.57;;;;;;;;;;5033016;28;20258;-71
2023/06/30 10:28:39;;;;;;;10.13;7.20;;;;;;;;;;5032062;28;20084;-72
2023/06/30 10:31:05;;;;;;;14.52;8.23;;;;;;;;;;5025299;28;20553;-72
2023/06/30 10:33:31;;;;;;;13.45;8.30;;;;;;;;;;5033789;28;20160;-70
2023/06/30 10:35:58;;;;;;;13.07;7.90;;;;;;;;;;5028424;28;20091;-71
2023/06/30 10:38:24;;;;;;;10.68;6.68;;;;;;;;;;5024410;28;20052;-71
2023/06/30 10:41:09;;;;;;;10.68;7.30;;;;;;;;;;5021072;28;20061;-72
2023/06/30 10:44:03;;;;;;;11.90;6.35;;;;;;;;;;5047414;28;20133;-73
2023/06/30 10:46:45;;;;;;;9.90;6.15;;;;;;;;;;5021367;28;20064;-72
2023/06/30 10:49:22;;;;;;;12.23;6.68;;;;;;;;;;5026364;28;20072;-72
2023/06/30 10:51:51;;;;;;;10.18;7.22;;;;;;;;;;5022638;28;20060;-72
2023/06/30 10:54:52;;;;;;;9.20;7.10;;;;;;;;;;5022033;28;20049;-73
2023/06/30 10:57:19;;;;;;;10.02;6.03;;;;;;;;;;5018377;28;20061;-72
2023/06/30 10:59:46;;;;;;;8.73;5.75;;;;;;;;;;5025741;28;20082;-72
2023/06/30 11:02:22;;;;;;;9.35;5.93;;;;;;;;;;5025861;28;20136;-72
2023/06/30 11:04:50;;;;;;;9.82;6.60;;;;;;;;;;5026450;28;20422;-72
2023/06/30 11:07:35;;;;;;;7.70;5.50;;;;;;;;;;5035896;28;20037;-72
2023/06/30 11:10:01;;;;;;;6.88;4.68;;;;;;;;;;5030593;28;20726;-73
2023/06/30 11:12:48;;;;;;;8.05;5.90;;;;;;;;;;5023190;28;20560;-73
2023/06/30 11:15:25;;;;;;;10.23;6.55;;;;;;;;;;5023612;28;20052;-74
2023/06/30 11:17:50;;;;;;;11.75;5.97;;;;;;;;;;5029125;28;20054;-74
2023/06/30 11:20:15;;;;;;;10.27;6.35;;;;;;;;;;5006807;28;20069;-73
2023/06/30 11:22:54;;;;;;;13.35;6.72;;;;;;;;;;5027919;28;20069;-73
2023/06/30 11:25:19;;;;;;;9.02;6.10;;;;;;;;;;5024618;28;20449;-74
2023/06/30 11:27:45;;;;;;;9.68;6.53;;;;;;;;;;5027329;28;20037;-74
2023/06/30 11:30:11;;;;;;;10.73;6.53;;;;;;;;;;5031628;28;20044;-74
2023/06/30 11:32:37;;;;;;;11.40;6.72;;;;;;;;;;5027393;28;20068;-74
2023/06/30 11:35:07;;;;;;;8.70;5.80;;;;;;;;;;5029547;28;20130;-74
2023/06/30 11:37:36;;;;;;;8.50;6.00;;;;;;;;;;5024762;28;20041;-74
2023/06/30 11:40:03;;;;;;;12.77;7.22;;;;;;;;;;5028935;28;20042;-73
2023/06/30 11:42:28;;;;;;;8.85;5.50;;;;;;;;;;5017902;28;20584;-73
2023/06/30 11:44:54;;;;;;;12.02;6.53;;;;;;;;;;5020173;28;20057;-74
2023/06/30 11:47:20;;;;;;;9.25;5.70;;;;;;;;;;5021665;28;20191;-73
2023/06/30 11:49:46;;;;;;;10.00;6.50;;;;;;;;;;5027731;28;20045;-74
2023/06/30 11:52:13;;;;;;;9.88;6.13;;;;;;;;;;5028644;28;20045;-74
2023/06/30 11:54:39;;;;;;;9.50;6.43;;;;;;;;;;5022341;28;20510;-74
2023/06/30 11:57:05;;;;;;;8.75;6.20;;;;;;;;;;5012058;28;20067;-74
2023/06/30 11:59:31;;;;;;;10.60;6.47;;;;;;;;;;5026176;28;20053;-74
2023/06/30 12:01:57;;;;;;;9.90;7.20;;;;;;;;;;5027259;28;20048;-73
2023/06/30 12:04:26;;;;;;;9.23;6.53;;;;;;;;;;5037163;28;20044;-74
2023/06/30 12:06:55;;;;;;;8.77;6.10;;;;;;;;;;5031106;28;20067;-74
2023/06/30 12:09:22;;;;;;;9.73;5.57;;;;;;;;;;5025636;28;20041;-74
2023/06/30 12:11:49;;;;;;;8.27;6.50;;;;;;;;;;5008027;28;20132;-74
2023/06/30 12:14:15;;;;;;;10.07;6.07;;;;;;;;;;5028395;28;20048;-74
2023/06/30 12:16:42;;;;;;;8.73;6.18;;;;;;;;;;5026564;28;20046;-74
2023/06/30 12:19:08;;;;;;;9.25;6.03;;;;;;;;;;5019474;28;20045;-74
2023/06/30 12:21:35;;;;;;;10.77;6.55;;;;;;;;;;5024231;28;20103;-74
2023/06/30 12:24:04;;;;;;;10.23;6.30;;;;;;;;;;5030332;28;20048;-72
2023/06/30 12:26:29;;;;;;;11.73;7.00;;;;;;;;;;5030439;28;20293;-72
2023/06/30 12:29:05;;;;;;;10.38;6.55;;;;;;;;;;5032987;28;20053;-73
2023/06/30 12:31:33;;;;;;;8.80;6.32;;;;;;;;;;5026498;28;20053;-74
2023/06/30 12:33:59;;;;;;;12.40;6.57;;;;;;;;;;5020228;28;20057;-72
2023/06/30 12:36:28;;;;;;;10.68;6.60;;;;;;;;;;5027169;28;20057;-75
2023/06/30 12:38:56;;;;;;;10.07;6.70;;;;;;;;;;5019773;28;20048;-73
2023/06/30 12:41:22;;;;;;;10.35;6.57;;;;;;;;;;5018626;28;20064;-74
2023/06/30 12:43:48;;;;;;;11.93;8.15;;;;;;;;;;5033516;28;20494;-73
2023/06/30 12:46:14;;;;;;;11.85;7.80;;;;;;;;;;5028895;28;20124;-73
2023/06/30 12:48:40;;;;;;;13.00;8.20;;;;;;;;;;5028457;28;20049;-76
2023/06/30 12:51:07;;;;;;;13.30;8.35;;;;;;;;;;5030565;28;20056;-73
2023/06/30 12:53:32;;;;;;;13.88;8.30;;;;;;;;;;5029795;28;20052;-75
2023/06/30 12:55:57;;;;;;;11.45;7.45;;;;;;;;;;5027665;28;20107;-74
2023/06/30 12:58:23;;;;;;;14.35;7.90;;;;;;;;;;5032673;28;20037;-74
2023/06/30 13:00:53;;;;;;;13.48;7.90;;;;;;;;;;5030026;28;20045;-74
2023/06/30 13:03:18;;;;;;;11.93;8.10;;;;;;;;;;5026223;28;20049;-74
2023/06/30 13:05:44;;;;;;;12.32;7.90;;;;;;;;;;5026748;28;20051;-74
2023/06/30 13:08:10;;;;;;;13.02;8.50;;;;;;;;;;5027584;28;20088;-75
2023/06/30 13:10:36;;;;;;;11.30;8.35;;;;;;;;;;5025904;28;20045;-75
2023/06/30 13:13:01;;;;;;;12.65;8.23;;;;;;;;;;5008399;28;20055;-75
2023/06/30 13:15:27;;;;;;;12.18;7.65;;;;;;;;;;5024906;28;20135;-73
2023/06/30 13:17:53;;;;;;;11.90;8.27;;;;;;;;;;5024856;28;20068;-72
2023/06/30 13:20:18;;;;;;;14.18;8.25;;;;;;;;;;5024138;28;20081;-71
2023/06/30 13:22:44;;;;;;;12.27;8.10;;;;;;;;;;5028076;28;20052;-73
2023/06/30 13:25:09;;;;;;;13.02;8.65;;;;;;;;;;5027108;28;20132;-73
2023/06/30 13:27:35;;;;;;;14.57;8.77;;;;;;;;;;5028016;28;20502;-73
2023/06/30 13:30:00;;;;;;;13.82;8.38;;;;;;;;;;5025660;28;20157;-74
2023/06/30 13:32:26;;;;;;;15.20;8.57;;;;;;;;;;5027452;28;20041;-73
2023/06/30 13:34:51;;;;;;;15.45;8.93;;;;;;;;;;5029022;28;20136;-73
2023/06/30 13:37:17;;;;;;;16.10;9.25;;;;;;;;;;5026996;28;20061;-73
2023/06/30 13:39:42;;;;;;;12.77;8.93;;;;;;;;;;5031745;28;20527;-72
2023/06/30 13:42:08;;;;;;;13.73;8.88;;;;;;;;;;5031685;28;20136;-73
2023/06/30 13:44:35;;;;;;;16.38;8.90;;;;;;;;;;5030017;28;20048;-74
2023/06/30 13:47:01;;;;;;;14.95;9.18;;;;;;;;;;5021767;28;20060;-74
2023/06/30 13:49:26;;;;;;;18.45;9.43;;;;;;;;;;5020570;28;20517;-73
2023/06/30 13:51:53;;;;;;;17.17;9.68;;;;;;;;;;5023410;28;20041;-74
2023/06/30 13:54:19;;;;;;;16.60;9.85;;;;;;;;;;5028169;28;20052;-73
2023/06/30 13:56:44;;;;;;;13.90;9.10;;;;;;;;;;5023834;28;20053;-74
2023/06/30 13:59:10;;;;;;;14.90;9.52;;;;;;;;;;5028020;28;20097;-74
2023/06/30 14:01:35;;;;;;;17.75;9.98;;;;;;;;;;5028391;28;20080;-74
2023/06/30 14:04:01;;;;;;;16.20;9.90;;;;;;;;;;5028637;28;20761;-76
2023/06/30 14:06:26;;;;;;;15.10;10.13;;;;;;;;;;5031690;28;20056;-74
2023/06/30 14:08:53;;;;;;;16.15;10.13;;;;;;;;;;5019016;28;20052;-74
2023/06/30 14:11:20;;;;;;;16.73;10.95;;;;;;;;;;5032067;28;20109;-74
2023/06/30 14:13:46;;;;;;;19.65;11.30;;;;;;;;;;5024050;28;20049;-73
2023/06/30 14:16:12;;;;;;;17.63;10.63;;;;;;;;;;5019001;28;20060;-73
2023/06/30 14:18:37;;;;;;;19.60;10.85;;;;;;;;;;4999747;28;20109;-73
2023/06/30 14:21:03;;;;;;;18.05;9.75;;;;;;;;;;5005085;28;20045;-74
2023/06/30 14:23:28;;;;;;;18.30;10.45;;;;;;;;;;5010069;28;20834;-73
2023/06/30 14:25:54;;;;;;;14.85;9.57;;;;;;;;;;5001782;28;20053;-73
2023/06/30 14:28:19;;;;;;;16.75;9.57;;;;;;;;;;5008098;28;20080;-73
2023/06/30 14:30:45;;;;;;;16.45;9.93;;;;;;;;;;5009472;28;20107;-73
2023/06/30 14:33:12;;;;;;;15.98;9.88;;;;;;;;;;5010560;28;20084;-74
2023/06/30 14:35:37;;;;;;;20.88;10.68;;;;;;;;;;5006086;28;20053;-73